This is the latest recevied weather packets stored in our database for station/object M9XDX-WX. If no packets are shown the sender has not sent any weather packets the latest 10 day(s).
| Time | Temp. | Humidity | Pressure | Rain* | Wind** | Luminosity | Snow |
|---|---|---|---|---|---|---|---|
| 1777551003 | 21.11° C | 41% | 1018.6 hPa | 0 mm | - | 801 W/m² | - |
| 1777549803 | 20.56° C | 42% | 1018.9 hPa | 0 mm | - | 791 W/m² | - |
| 1777548003 | 19.44° C | 43% | 1018.9 hPa | 0 mm | - | 775 W/m² | - |
| 1777546803 | 18.33° C | 47% | 1019 hPa | 0 mm | - | 752 W/m² | - |
| 1777543339 | 16.67° C | 53% | 1019.3 hPa | 0 mm | - | 640 W/m² | - |
| 1777541403 | 15.56° C | 53% | 1019.4 hPa | 0 mm | - | 574 W/m² | - |
| 1777540203 | 15.56° C | 55% | 1019.6 hPa | 0 mm | - | 531 W/m² | - |
| 1777539003 | 15° C | 55% | 1019.7 hPa | 0 mm | - | 481 W/m² | - |
| 1777537203 | 13.89° C | 62% | 1019.8 hPa | 0 mm | - | 397 W/m² | - |
| 1777535541 | 13.33° C | 59% | 1020.2 hPa | 0 mm | - | 316 W/m² | - |
| 1777534803 | 12.78° C | 60% | 1020.3 hPa | 0 mm | - | 278 W/m² | - |
| 1777534203 | 12.78° C | 62% | 1020.3 hPa | 0 mm | - | 249 W/m² | - |
| 1777532541 | 11.67° C | 64% | 1020.3 hPa | 0 mm | - | 174 W/m² | - |
| 1777531803 | 11.67° C | 64% | 1020.3 hPa | 0 mm | - | 144 W/m² | - |
| 1777529403 | 10.56° C | 66% | 1020.2 hPa | 0 mm | - | 67 W/m² | - |
| 1777525803 | 8.89° C | 70% | 1020.3 hPa | 0 mm | - | 17 W/m² | - |
| 1777524003 | 8.89° C | 70% | 1020.3 hPa | 0 mm | - | 2 W/m² | - |
| 1777523403 | 8.89° C | 69% | 1020.3 hPa | 0 mm | - | 0 W/m² | - |
| 1777521603 | 8.89° C | 68% | 1020.3 hPa | 0 mm | - | 0 W/m² | - |
| 1777519203 | 9.44° C | 66% | 1020.3 hPa | 0 mm | - | 0 W/m² | - |
| 1777518139 | 9.44° C | 66% | 1020.6 hPa | 0 mm | - | 0 W/m² | - |
| 1777513803 | 10° C | 62% | 1021 hPa | 0 mm | - | 0 W/m² | - |
| 1777508403 | 10.56° C | 59% | 1021.4 hPa | 0 mm | - | 0 W/m² | - |
| 1777505403 | 11.11° C | 57% | 1021.5 hPa | 0 mm | - | 0 W/m² | - |
| 1777504803 | 11.11° C | 56% | 1021.6 hPa | 0 mm | - | 0 W/m² | - |
* Rain latest hour (hover to see other rain measurements)
** Current wind speed in m/s (hover to see current wind gust speed)